sensor_id;sensor_type;location;lat;lon;timestamp;P1;durP1;ratioP1;P2;durP2;ratioP2
13244;SDS011;6689;53.400;12.486;2024-01-30T00:00:33;9.05;;;5.95;;
13244;SDS011;6689;53.400;12.486;2024-01-30T00:03:00;8.70;;;5.50;;
13244;SDS011;6689;53.400;12.486;2024-01-30T00:05:28;8.65;;;5.70;;
13244;SDS011;6689;53.400;12.486;2024-01-30T00:07:55;7.50;;;5.72;;
13244;SDS011;6689;53.400;12.486;2024-01-30T00:10:22;8.65;;;5.78;;
13244;SDS011;6689;53.400;12.486;2024-01-30T00:12:49;8.30;;;5.63;;
13244;SDS011;6689;53.400;12.486;2024-01-30T00:15:19;9.57;;;5.50;;
13244;SDS011;6689;53.400;12.486;2024-01-30T00:17:46;8.75;;;5.93;;
13244;SDS011;6689;53.400;12.486;2024-01-30T00:20:14;7.90;;;6.03;;
13244;SDS011;6689;53.400;12.486;2024-01-30T00:22:41;19.83;;;7.15;;
13244;SDS011;6689;53.400;12.486;2024-01-30T00:25:09;9.10;;;5.40;;
13244;SDS011;6689;53.400;12.486;2024-01-30T00:27:36;6.75;;;5.38;;
13244;SDS011;6689;53.400;12.486;2024-01-30T00:30:03;9.43;;;5.97;;
13244;SDS011;6689;53.400;12.486;2024-01-30T00:32:33;8.73;;;5.70;;
13244;SDS011;6689;53.400;12.486;2024-01-30T00:35:00;7.45;;;6.07;;
13244;SDS011;6689;53.400;12.486;2024-01-30T00:37:28;8.50;;;5.32;;
13244;SDS011;6689;53.400;12.486;2024-01-30T00:39:56;13.30;;;6.07;;
13244;SDS011;6689;53.400;12.486;2024-01-30T00:42:24;11.52;;;6.85;;
13244;SDS011;6689;53.400;12.486;2024-01-30T00:44:51;10.65;;;5.88;;
13244;SDS011;6689;53.400;12.486;2024-01-30T00:47:18;9.50;;;5.70;;
13244;SDS011;6689;53.400;12.486;2024-01-30T00:49:47;6.70;;;5.15;;
13244;SDS011;6689;53.400;12.486;2024-01-30T00:52:14;8.77;;;5.70;;
13244;SDS011;6689;53.400;12.486;2024-01-30T00:54:42;9.73;;;5.80;;
13244;SDS011;6689;53.400;12.486;2024-01-30T00:57:10;10.02;;;5.68;;
13244;SDS011;6689;53.400;12.486;2024-01-30T00:59:37;13.75;;;6.60;;
13244;SDS011;6689;53.400;12.486;2024-01-30T01:02:05;14.85;;;7.40;;
13244;SDS011;6689;53.400;12.486;2024-01-30T01:04:33;13.73;;;6.95;;
13244;SDS011;6689;53.400;12.486;2024-01-30T01:07:02;11.90;;;5.82;;
13244;SDS011;6689;53.400;12.486;2024-01-30T01:09:29;9.52;;;6.30;;
13244;SDS011;6689;53.400;12.486;2024-01-30T01:11:57;8.68;;;6.30;;
13244;SDS011;6689;53.400;12.486;2024-01-30T01:14:25;10.52;;;5.97;;
13244;SDS011;6689;53.400;12.486;2024-01-30T01:16:52;8.40;;;6.00;;
13244;SDS011;6689;53.400;12.486;2024-01-30T01:19:19;9.70;;;6.25;;
13244;SDS011;6689;53.400;12.486;2024-01-30T01:21:46;9.48;;;6.55;;
13244;SDS011;6689;53.400;12.486;2024-01-30T01:24:14;11.93;;;6.15;;
13244;SDS011;6689;53.400;12.486;2024-01-30T01:26:42;9.50;;;5.90;;
13244;SDS011;6689;53.400;12.486;2024-01-30T01:29:09;8.93;;;5.82;;
13244;SDS011;6689;53.400;12.486;2024-01-30T01:31:37;7.72;;;6.20;;
13244;SDS011;6689;53.400;12.486;2024-01-30T01:34:08;9.38;;;6.20;;
13244;SDS011;6689;53.400;12.486;2024-01-30T01:36:36;8.77;;;5.72;;
13244;SDS011;6689;53.400;12.486;2024-01-30T01:39:03;9.48;;;6.25;;
13244;SDS011;6689;53.400;12.486;2024-01-30T01:41:33;10.25;;;6.65;;
13244;SDS011;6689;53.400;12.486;2024-01-30T01:44:00;12.60;;;6.93;;
13244;SDS011;6689;53.400;12.486;2024-01-30T01:46:27;10.75;;;6.65;;
13244;SDS011;6689;53.400;12.486;2024-01-30T01:48:57;9.07;;;6.70;;
13244;SDS011;6689;53.400;12.486;2024-01-30T01:51:26;8.80;;;5.82;;
13244;SDS011;6689;53.400;12.486;2024-01-30T01:53:54;7.82;;;6.07;;
13244;SDS011;6689;53.400;12.486;2024-01-30T01:56:23;11.15;;;7.00;;
13244;SDS011;6689;53.400;12.486;2024-01-30T01:58:53;8.98;;;5.75;;
13244;SDS011;6689;53.400;12.486;2024-01-30T02:01:21;9.00;;;6.28;;
13244;SDS011;6689;53.400;12.486;2024-01-30T02:03:53;11.35;;;6.93;;
13244;SDS011;6689;53.400;12.486;2024-01-30T02:06:21;9.13;;;5.75;;
13244;SDS011;6689;53.400;12.486;2024-01-30T02:08:49;11.93;;;7.35;;
13244;SDS011;6689;53.400;12.486;2024-01-30T02:11:16;10.52;;;6.57;;
13244;SDS011;6689;53.400;12.486;2024-01-30T02:13:44;13.40;;;6.40;;
13244;SDS011;6689;53.400;12.486;2024-01-30T02:16:13;12.25;;;6.50;;
13244;SDS011;6689;53.400;12.486;2024-01-30T02:18:40;10.95;;;6.60;;
13244;SDS011;6689;53.400;12.486;2024-01-30T02:21:12;10.10;;;6.68;;
13244;SDS011;6689;53.400;12.486;2024-01-30T02:23:40;10.77;;;7.38;;
13244;SDS011;6689;53.400;12.486;2024-01-30T02:26:09;9.30;;;6.03;;
13244;SDS011;6689;53.400;12.486;2024-01-30T02:28:37;10.38;;;6.30;;
13244;SDS011;6689;53.400;12.486;2024-01-30T02:31:05;7.97;;;6.18;;
13244;SDS011;6689;53.400;12.486;2024-01-30T02:33:32;7.53;;;5.65;;
13244;SDS011;6689;53.400;12.486;2024-01-30T02:35:59;9.60;;;6.45;;
13244;SDS011;6689;53.400;12.486;2024-01-30T02:38:29;8.68;;;5.97;;
13244;SDS011;6689;53.400;12.486;2024-01-30T02:40:56;9.05;;;5.68;;
13244;SDS011;6689;53.400;12.486;2024-01-30T02:43:24;10.45;;;6.18;;
13244;SDS011;6689;53.400;12.486;2024-01-30T02:45:51;8.75;;;6.40;;
13244;SDS011;6689;53.400;12.486;2024-01-30T02:48:18;8.00;;;6.80;;
13244;SDS011;6689;53.400;12.486;2024-01-30T02:50:46;8.95;;;6.40;;
13244;SDS011;6689;53.400;12.486;2024-01-30T02:53:17;10.45;;;5.88;;
13244;SDS011;6689;53.400;12.486;2024-01-30T02:55:47;10.05;;;7.60;;
13244;SDS011;6689;53.400;12.486;2024-01-30T02:58:15;8.77;;;6.13;;
13244;SDS011;6689;53.400;12.486;2024-01-30T03:00:42;8.48;;;6.28;;
13244;SDS011;6689;53.400;12.486;2024-01-30T03:03:10;10.02;;;6.35;;
13244;SDS011;6689;53.400;12.486;2024-01-30T03:05:38;10.68;;;6.20;;
13244;SDS011;6689;53.400;12.486;2024-01-30T03:08:06;10.02;;;6.30;;
13244;SDS011;6689;53.400;12.486;2024-01-30T03:10:34;11.13;;;5.72;;
13244;SDS011;6689;53.400;12.486;2024-01-30T03:13:05;9.98;;;6.43;;
13244;SDS011;6689;53.400;12.486;2024-01-30T03:15:32;9.02;;;6.32;;
13244;SDS011;6689;53.400;12.486;2024-01-30T03:18:01;13.93;;;7.05;;
13244;SDS011;6689;53.400;12.486;2024-01-30T03:20:29;7.80;;;6.15;;
13244;SDS011;6689;53.400;12.486;2024-01-30T03:22:56;8.77;;;6.63;;
13244;SDS011;6689;53.400;12.486;2024-01-30T03:25:26;9.25;;;6.50;;
13244;SDS011;6689;53.400;12.486;2024-01-30T03:27:54;9.25;;;6.95;;
13244;SDS011;6689;53.400;12.486;2024-01-30T03:30:27;7.82;;;6.28;;
13244;SDS011;6689;53.400;12.486;2024-01-30T03:32:55;9.55;;;6.43;;
13244;SDS011;6689;53.400;12.486;2024-01-30T03:35:22;11.57;;;7.43;;
13244;SDS011;6689;53.400;12.486;2024-01-30T03:37:49;10.75;;;6.93;;
13244;SDS011;6689;53.400;12.486;2024-01-30T03:40:28;9.35;;;6.90;;
13244;SDS011;6689;53.400;12.486;2024-01-30T03:42:55;11.20;;;7.05;;
13244;SDS011;6689;53.400;12.486;2024-01-30T03:45:25;11.00;;;7.35;;
13244;SDS011;6689;53.400;12.486;2024-01-30T03:47:52;11.45;;;8.23;;
13244;SDS011;6689;53.400;12.486;2024-01-30T03:50:19;12.73;;;8.38;;
13244;SDS011;6689;53.400;12.486;2024-01-30T03:52:46;13.63;;;9.05;;
13244;SDS011;6689;53.400;12.486;2024-01-30T03:55:14;13.48;;;8.23;;
13244;SDS011;6689;53.400;12.486;2024-01-30T03:57:41;10.35;;;7.47;;
13244;SDS011;6689;53.400;12.486;2024-01-30T04:00:09;11.43;;;7.43;;
13244;SDS011;6689;53.400;12.486;2024-01-30T04:02:39;13.20;;;8.55;;
13244;SDS011;6689;53.400;12.486;2024-01-30T04:05:06;9.30;;;7.10;;
13244;SDS011;6689;53.400;12.486;2024-01-30T04:07:35;12.55;;;8.15;;
13244;SDS011;6689;53.400;12.486;2024-01-30T04:10:02;11.98;;;8.25;;
13244;SDS011;6689;53.400;12.486;2024-01-30T04:12:31;13.85;;;8.30;;
13244;SDS011;6689;53.400;12.486;2024-01-30T04:14:58;10.70;;;7.65;;
13244;SDS011;6689;53.400;12.486;2024-01-30T04:17:26;10.95;;;7.25;;
13244;SDS011;6689;53.400;12.486;2024-01-30T04:19:55;9.57;;;7.22;;
13244;SDS011;6689;53.400;12.486;2024-01-30T04:22:23;9.48;;;6.85;;
13244;SDS011;6689;53.400;12.486;2024-01-30T04:24:50;19.35;;;8.10;;
13244;SDS011;6689;53.400;12.486;2024-01-30T04:27:18;11.82;;;6.85;;
13244;SDS011;6689;53.400;12.486;2024-01-30T04:29:45;13.98;;;8.85;;
13244;SDS011;6689;53.400;12.486;2024-01-30T04:32:13;15.73;;;7.63;;
13244;SDS011;6689;53.400;12.486;2024-01-30T04:34:41;13.32;;;8.05;;
13244;SDS011;6689;53.400;12.486;2024-01-30T04:37:10;10.77;;;8.02;;
13244;SDS011;6689;53.400;12.486;2024-01-30T04:39:38;12.05;;;7.72;;
13244;SDS011;6689;53.400;12.486;2024-01-30T04:42:06;12.23;;;7.78;;
13244;SDS011;6689;53.400;12.486;2024-01-30T04:44:33;10.02;;;7.00;;
13244;SDS011;6689;53.400;12.486;2024-01-30T04:47:01;12.60;;;7.40;;
13244;SDS011;6689;53.400;12.486;2024-01-30T04:49:30;10.60;;;7.28;;
13244;SDS011;6689;53.400;12.486;2024-01-30T04:51:57;12.48;;;7.88;;
13244;SDS011;6689;53.400;12.486;2024-01-30T04:54:26;14.75;;;8.50;;
13244;SDS011;6689;53.400;12.486;2024-01-30T04:56:53;12.52;;;8.15;;
13244;SDS011;6689;53.400;12.486;2024-01-30T04:59:21;12.55;;;8.68;;
13244;SDS011;6689;53.400;12.486;2024-01-30T05:01:48;13.57;;;9.10;;
13244;SDS011;6689;53.400;12.486;2024-01-30T05:04:16;13.10;;;8.60;;
13244;SDS011;6689;53.400;12.486;2024-01-30T05:06:43;11.23;;;8.65;;
13244;SDS011;6689;53.400;12.486;2024-01-30T05:09:11;10.65;;;7.88;;
13244;SDS011;6689;53.400;12.486;2024-01-30T05:11:40;12.32;;;8.10;;
13244;SDS011;6689;53.400;12.486;2024-01-30T05:14:08;11.25;;;7.63;;
13244;SDS011;6689;53.400;12.486;2024-01-30T05:16:36;11.95;;;8.60;;
13244;SDS011;6689;53.400;12.486;2024-01-30T05:19:04;15.95;;;8.52;;
13244;SDS011;6689;53.400;12.486;2024-01-30T05:21:31;13.18;;;9.13;;
13244;SDS011;6689;53.400;12.486;2024-01-30T05:23:59;13.00;;;8.73;;
13244;SDS011;6689;53.400;12.486;2024-01-30T05:26:26;12.63;;;8.48;;
13244;SDS011;6689;53.400;12.486;2024-01-30T05:28:55;14.65;;;8.77;;
13244;SDS011;6689;53.400;12.486;2024-01-30T05:31:23;12.50;;;8.93;;
13244;SDS011;6689;53.400;12.486;2024-01-30T05:33:52;10.90;;;8.65;;
13244;SDS011;6689;53.400;12.486;2024-01-30T05:36:19;13.85;;;9.20;;
13244;SDS011;6689;53.400;12.486;2024-01-30T05:38:47;15.07;;;9.43;;
13244;SDS011;6689;53.400;12.486;2024-01-30T05:41:15;11.27;;;9.13;;
13244;SDS011;6689;53.400;12.486;2024-01-30T05:43:43;14.38;;;8.93;;
13244;SDS011;6689;53.400;12.486;2024-01-30T05:46:13;13.45;;;8.35;;
13244;SDS011;6689;53.400;12.486;2024-01-30T05:48:41;13.18;;;9.25;;
13244;SDS011;6689;53.400;12.486;2024-01-30T05:51:11;12.30;;;8.13;;
13244;SDS011;6689;53.400;12.486;2024-01-30T05:53:39;11.23;;;7.45;;
13244;SDS011;6689;53.400;12.486;2024-01-30T05:56:07;12.50;;;8.48;;
13244;SDS011;6689;53.400;12.486;2024-01-30T05:58:34;12.88;;;8.63;;
13244;SDS011;6689;53.400;12.486;2024-01-30T06:01:02;14.43;;;9.63;;
13244;SDS011;6689;53.400;12.486;2024-01-30T06:03:35;13.30;;;8.75;;
13244;SDS011;6689;53.400;12.486;2024-01-30T06:06:02;15.32;;;10.02;;
13244;SDS011;6689;53.400;12.486;2024-01-30T06:08:31;13.32;;;10.35;;
13244;SDS011;6689;53.400;12.486;2024-01-30T06:10:59;14.98;;;9.18;;
13244;SDS011;6689;53.400;12.486;2024-01-30T06:13:27;13.40;;;9.00;;
13244;SDS011;6689;53.400;12.486;2024-01-30T06:15:56;13.40;;;9.32;;
13244;SDS011;6689;53.400;12.486;2024-01-30T06:18:24;13.77;;;9.00;;
13244;SDS011;6689;53.400;12.486;2024-01-30T06:20:53;14.73;;;9.52;;
13244;SDS011;6689;53.400;12.486;2024-01-30T06:23:21;12.10;;;8.30;;
13244;SDS011;6689;53.400;12.486;2024-01-30T06:25:48;13.25;;;9.52;;
13244;SDS011;6689;53.400;12.486;2024-01-30T06:28:15;14.65;;;9.13;;
13244;SDS011;6689;53.400;12.486;2024-01-30T06:30:43;13.52;;;8.82;;
13244;SDS011;6689;53.400;12.486;2024-01-30T06:33:11;15.25;;;9.65;;
13244;SDS011;6689;53.400;12.486;2024-01-30T06:35:40;12.95;;;8.45;;
13244;SDS011;6689;53.400;12.486;2024-01-30T06:38:09;14.10;;;8.73;;
13244;SDS011;6689;53.400;12.486;2024-01-30T06:40:38;13.52;;;8.65;;
13244;SDS011;6689;53.400;12.486;2024-01-30T06:43:05;15.40;;;9.18;;
13244;SDS011;6689;53.400;12.486;2024-01-30T06:45:35;15.65;;;9.70;;
13244;SDS011;6689;53.400;12.486;2024-01-30T06:48:02;14.48;;;9.45;;
13244;SDS011;6689;53.400;12.486;2024-01-30T06:50:30;16.55;;;10.00;;
13244;SDS011;6689;53.400;12.486;2024-01-30T06:52:57;13.57;;;9.15;;
13244;SDS011;6689;53.400;12.486;2024-01-30T06:55:26;12.63;;;8.95;;
13244;SDS011;6689;53.400;12.486;2024-01-30T06:57:54;11.43;;;8.60;;
13244;SDS011;6689;53.400;12.486;2024-01-30T07:00:21;12.10;;;8.73;;
13244;SDS011;6689;53.400;12.486;2024-01-30T07:02:48;15.65;;;9.43;;
13244;SDS011;6689;53.400;12.486;2024-01-30T07:05:16;13.93;;;9.00;;
13244;SDS011;6689;53.400;12.486;2024-01-30T07:07:47;12.20;;;8.68;;
13244;SDS011;6689;53.400;12.486;2024-01-30T07:10:14;11.82;;;8.63;;
13244;SDS011;6689;53.400;12.486;2024-01-30T07:12:42;10.45;;;8.07;;
13244;SDS011;6689;53.400;12.486;2024-01-30T07:15:10;12.95;;;8.35;;
13244;SDS011;6689;53.400;12.486;2024-01-30T07:17:39;12.27;;;8.77;;
13244;SDS011;6689;53.400;12.486;2024-01-30T07:20:08;15.15;;;9.30;;
13244;SDS011;6689;53.400;12.486;2024-01-30T07:22:36;13.52;;;9.40;;
13244;SDS011;6689;53.400;12.486;2024-01-30T07:25:04;12.30;;;8.95;;
13244;SDS011;6689;53.400;12.486;2024-01-30T07:27:32;12.07;;;8.50;;
13244;SDS011;6689;53.400;12.486;2024-01-30T07:30:01;16.92;;;8.95;;
13244;SDS011;6689;53.400;12.486;2024-01-30T07:32:29;15.60;;;10.68;;
13244;SDS011;6689;53.400;12.486;2024-01-30T07:34:56;15.60;;;9.00;;
13244;SDS011;6689;53.400;12.486;2024-01-30T07:37:24;14.52;;;9.35;;
13244;SDS011;6689;53.400;12.486;2024-01-30T07:39:51;14.00;;;9.85;;
13244;SDS011;6689;53.400;12.486;2024-01-30T07:42:18;15.07;;;10.30;;
13244;SDS011;6689;53.400;12.486;2024-01-30T07:44:45;16.13;;;10.18;;
13244;SDS011;6689;53.400;12.486;2024-01-30T07:47:14;18.02;;;10.85;;
13244;SDS011;6689;53.400;12.486;2024-01-30T07:49:41;13.75;;;9.85;;
13244;SDS011;6689;53.400;12.486;2024-01-30T07:52:08;13.00;;;8.43;;
13244;SDS011;6689;53.400;12.486;2024-01-30T07:54:40;12.10;;;9.13;;
13244;SDS011;6689;53.400;12.486;2024-01-30T07:57:07;11.98;;;8.43;;
13244;SDS011;6689;53.400;12.486;2024-01-30T07:59:34;11.48;;;9.43;;
13244;SDS011;6689;53.400;12.486;2024-01-30T08:02:02;16.35;;;9.95;;
13244;SDS011;6689;53.400;12.486;2024-01-30T08:04:31;12.77;;;8.80;;
13244;SDS011;6689;53.400;12.486;2024-01-30T08:06:58;16.25;;;8.93;;
13244;SDS011;6689;53.400;12.486;2024-01-30T08:09:25;14.77;;;9.23;;
13244;SDS011;6689;53.400;12.486;2024-01-30T08:11:53;15.90;;;10.80;;
13244;SDS011;6689;53.400;12.486;2024-01-30T08:14:21;11.85;;;8.50;;
13244;SDS011;6689;53.400;12.486;2024-01-30T08:16:49;11.85;;;7.72;;
13244;SDS011;6689;53.400;12.486;2024-01-30T08:19:19;14.32;;;9.10;;
13244;SDS011;6689;53.400;12.486;2024-01-30T08:21:47;15.07;;;8.80;;
13244;SDS011;6689;53.400;12.486;2024-01-30T08:24:15;18.73;;;8.85;;
13244;SDS011;6689;53.400;12.486;2024-01-30T08:26:44;14.85;;;9.48;;
13244;SDS011;6689;53.400;12.486;2024-01-30T08:29:11;14.32;;;9.98;;
13244;SDS011;6689;53.400;12.486;2024-01-30T08:31:40;15.85;;;10.45;;
13244;SDS011;6689;53.400;12.486;2024-01-30T08:34:07;18.05;;;12.35;;
13244;SDS011;6689;53.400;12.486;2024-01-30T08:36:36;15.25;;;9.80;;
13244;SDS011;6689;53.400;12.486;2024-01-30T08:39:05;14.20;;;9.60;;
13244;SDS011;6689;53.400;12.486;2024-01-30T08:41:32;17.25;;;10.20;;
13244;SDS011;6689;53.400;12.486;2024-01-30T08:44:00;20.60;;;11.02;;
13244;SDS011;6689;53.400;12.486;2024-01-30T08:46:28;13.60;;;9.60;;
13244;SDS011;6689;53.400;12.486;2024-01-30T08:48:55;15.45;;;9.32;;
13244;SDS011;6689;53.400;12.486;2024-01-30T08:51:23;16.25;;;10.23;;
13244;SDS011;6689;53.400;12.486;2024-01-30T08:53:50;13.50;;;9.48;;
13244;SDS011;6689;53.400;12.486;2024-01-30T08:56:20;16.63;;;9.90;;
13244;SDS011;6689;53.400;12.486;2024-01-30T08:58:48;16.85;;;10.75;;
13244;SDS011;6689;53.400;12.486;2024-01-30T09:01:18;13.55;;;9.00;;
13244;SDS011;6689;53.400;12.486;2024-01-30T09:03:45;14.40;;;9.43;;
13244;SDS011;6689;53.400;12.486;2024-01-30T09:06:12;13.45;;;9.52;;
13244;SDS011;6689;53.400;12.486;2024-01-30T09:08:40;15.68;;;9.75;;
13244;SDS011;6689;53.400;12.486;2024-01-30T09:11:11;18.92;;;11.25;;
13244;SDS011;6689;53.400;12.486;2024-01-30T09:13:41;14.88;;;10.00;;
13244;SDS011;6689;53.400;12.486;2024-01-30T09:16:08;15.77;;;10.30;;
13244;SDS011;6689;53.400;12.486;2024-01-30T09:18:36;16.42;;;9.90;;
13244;SDS011;6689;53.400;12.486;2024-01-30T09:21:03;15.55;;;10.20;;
13244;SDS011;6689;53.400;12.486;2024-01-30T09:23:31;13.95;;;9.25;;
13244;SDS011;6689;53.400;12.486;2024-01-30T09:25:58;14.32;;;10.23;;
13244;SDS011;6689;53.400;12.486;2024-01-30T09:28:26;12.50;;;9.30;;
13244;SDS011;6689;53.400;12.486;2024-01-30T09:30:54;14.60;;;10.00;;
13244;SDS011;6689;53.400;12.486;2024-01-30T09:33:23;14.50;;;9.45;;
13244;SDS011;6689;53.400;12.486;2024-01-30T09:35:50;14.75;;;10.23;;
13244;SDS011;6689;53.400;12.486;2024-01-30T09:38:18;13.75;;;9.98;;
13244;SDS011;6689;53.400;12.486;2024-01-30T09:40:45;19.85;;;11.45;;
13244;SDS011;6689;53.400;12.486;2024-01-30T09:43:23;14.02;;;10.55;;
13244;SDS011;6689;53.400;12.486;2024-01-30T09:45:51;13.90;;;9.23;;
13244;SDS011;6689;53.400;12.486;2024-01-30T09:48:21;14.77;;;9.85;;
13244;SDS011;6689;53.400;12.486;2024-01-30T09:50:48;13.95;;;10.13;;
13244;SDS011;6689;53.400;12.486;2024-01-30T09:53:17;15.15;;;10.32;;
13244;SDS011;6689;53.400;12.486;2024-01-30T09:55:48;15.70;;;9.90;;
13244;SDS011;6689;53.400;12.486;2024-01-30T09:58:17;14.63;;;10.18;;
13244;SDS011;6689;53.400;12.486;2024-01-30T10:00:44;16.60;;;10.48;;
13244;SDS011;6689;53.400;12.486;2024-01-30T10:03:11;14.52;;;10.05;;
13244;SDS011;6689;53.400;12.486;2024-01-30T10:05:41;14.45;;;10.55;;
13244;SDS011;6689;53.400;12.486;2024-01-30T10:08:17;18.77;;;11.70;;
13244;SDS011;6689;53.400;12.486;2024-01-30T10:10:45;16.42;;;11.35;;
13244;SDS011;6689;53.400;12.486;2024-01-30T10:13:12;16.70;;;11.07;;
13244;SDS011;6689;53.400;12.486;2024-01-30T10:15:40;15.75;;;11.05;;
13244;SDS011;6689;53.400;12.486;2024-01-30T10:18:08;17.48;;;10.88;;
13244;SDS011;6689;53.400;12.486;2024-01-30T10:20:36;16.27;;;10.90;;
13244;SDS011;6689;53.400;12.486;2024-01-30T10:23:05;17.60;;;11.40;;
13244;SDS011;6689;53.400;12.486;2024-01-30T10:25:33;18.35;;;12.43;;
13244;SDS011;6689;53.400;12.486;2024-01-30T10:28:04;17.55;;;12.68;;
13244;SDS011;6689;53.400;12.486;2024-01-30T10:30:31;17.73;;;12.43;;
13244;SDS011;6689;53.400;12.486;2024-01-30T10:32:59;19.35;;;12.70;;
13244;SDS011;6689;53.400;12.486;2024-01-30T10:35:26;16.63;;;12.52;;
13244;SDS011;6689;53.400;12.486;2024-01-30T10:37:54;17.75;;;12.57;;
13244;SDS011;6689;53.400;12.486;2024-01-30T10:40:28;22.05;;;14.40;;
13244;SDS011;6689;53.400;12.486;2024-01-30T10:42:55;18.08;;;11.52;;
13244;SDS011;6689;53.400;12.486;2024-01-30T10:45:23;17.40;;;12.02;;
13244;SDS011;6689;53.400;12.486;2024-01-30T10:47:53;16.98;;;11.73;;
13244;SDS011;6689;53.400;12.486;2024-01-30T10:50:23;16.00;;;12.25;;
13244;SDS011;6689;53.400;12.486;2024-01-30T10:52:52;17.17;;;12.00;;
13244;SDS011;6689;53.400;12.486;2024-01-30T10:55:22;17.75;;;12.55;;
13244;SDS011;6689;53.400;12.486;2024-01-30T10:57:51;17.13;;;13.70;;
13244;SDS011;6689;53.400;12.486;2024-01-30T11:00:19;16.58;;;11.98;;
13244;SDS011;6689;53.400;12.486;2024-01-30T11:02:49;18.23;;;12.07;;
13244;SDS011;6689;53.400;12.486;2024-01-30T11:05:23;16.38;;;12.65;;
13244;SDS011;6689;53.400;12.486;2024-01-30T11:07:51;15.77;;;12.55;;
13244;SDS011;6689;53.400;12.486;2024-01-30T11:10:18;20.33;;;13.52;;
13244;SDS011;6689;53.400;12.486;2024-01-30T11:12:46;20.33;;;14.23;;
13244;SDS011;6689;53.400;12.486;2024-01-30T11:15:18;20.00;;;14.98;;
13244;SDS011;6689;53.400;12.486;2024-01-30T11:17:50;17.50;;;13.68;;
13244;SDS011;6689;53.400;12.486;2024-01-30T11:20:19;15.63;;;11.95;;
13244;SDS011;6689;53.400;12.486;2024-01-30T11:22:48;18.25;;;12.85;;
13244;SDS011;6689;53.400;12.486;2024-01-30T11:25:17;15.60;;;12.18;;
13244;SDS011;6689;53.400;12.486;2024-01-30T11:27:49;15.40;;;11.75;;
13244;SDS011;6689;53.400;12.486;2024-01-30T11:30:23;18.38;;;12.27;;
13244;SDS011;6689;53.400;12.486;2024-01-30T11:32:58;17.85;;;12.50;;
13244;SDS011;6689;53.400;12.486;2024-01-30T11:35:29;15.13;;;11.15;;
13244;SDS011;6689;53.400;12.486;2024-01-30T11:37:58;17.38;;;10.82;;
13244;SDS011;6689;53.400;12.486;2024-01-30T11:40:27;17.25;;;12.27;;
13244;SDS011;6689;53.400;12.486;2024-01-30T11:42:55;17.10;;;12.02;;
13244;SDS011;6689;53.400;12.486;2024-01-30T11:45:23;15.85;;;10.88;;
13244;SDS011;6689;53.400;12.486;2024-01-30T11:47:51;15.73;;;11.73;;
13244;SDS011;6689;53.400;12.486;2024-01-30T11:50:20;19.60;;;11.30;;
13244;SDS011;6689;53.400;12.486;2024-01-30T11:52:47;16.85;;;11.52;;
13244;SDS011;6689;53.400;12.486;2024-01-30T11:55:16;16.20;;;11.25;;
13244;SDS011;6689;53.400;12.486;2024-01-30T11:57:44;17.20;;;11.82;;
13244;SDS011;6689;53.400;12.486;2024-01-30T12:00:14;22.73;;;12.02;;
13244;SDS011;6689;53.400;12.486;2024-01-30T12:02:44;21.10;;;11.80;;
13244;SDS011;6689;53.400;12.486;2024-01-30T12:05:15;17.42;;;11.82;;
13244;SDS011;6689;53.400;12.486;2024-01-30T12:07:46;16.02;;;11.07;;
13244;SDS011;6689;53.400;12.486;2024-01-30T12:10:13;17.25;;;12.10;;
13244;SDS011;6689;53.400;12.486;2024-01-30T12:12:41;13.35;;;10.10;;
13244;SDS011;6689;53.400;12.486;2024-01-30T12:15:10;19.25;;;11.52;;
13244;SDS011;6689;53.400;12.486;2024-01-30T12:17:37;19.88;;;11.48;;
13244;SDS011;6689;53.400;12.486;2024-01-30T12:20:07;16.92;;;11.10;;
13244;SDS011;6689;53.400;12.486;2024-01-30T12:22:36;15.82;;;11.13;;
13244;SDS011;6689;53.400;12.486;2024-01-30T12:25:07;16.85;;;11.35;;
13244;SDS011;6689;53.400;12.486;2024-01-30T12:27:35;14.77;;;10.77;;
13244;SDS011;6689;53.400;12.486;2024-01-30T12:30:05;13.43;;;10.40;;
13244;SDS011;6689;53.400;12.486;2024-01-30T12:32:34;15.73;;;11.32;;
13244;SDS011;6689;53.400;12.486;2024-01-30T12:35:02;15.35;;;10.73;;
13244;SDS011;6689;53.400;12.486;2024-01-30T12:37:34;16.45;;;11.63;;
13244;SDS011;6689;53.400;12.486;2024-01-30T12:40:02;15.85;;;11.57;;
13244;SDS011;6689;53.400;12.486;2024-01-30T12:42:29;17.20;;;12.00;;
13244;SDS011;6689;53.400;12.486;2024-01-30T12:44:57;17.45;;;11.20;;
13244;SDS011;6689;53.400;12.486;2024-01-30T12:47:24;16.40;;;10.63;;
13244;SDS011;6689;53.400;12.486;2024-01-30T12:49:52;13.68;;;11.07;;
13244;SDS011;6689;53.400;12.486;2024-01-30T12:52:19;18.33;;;11.50;;
13244;SDS011;6689;53.400;12.486;2024-01-30T12:54:49;14.50;;;10.30;;
13244;SDS011;6689;53.400;12.486;2024-01-30T12:57:17;17.30;;;11.30;;
13244;SDS011;6689;53.400;12.486;2024-01-30T12:59:47;15.85;;;9.82;;
13244;SDS011;6689;53.400;12.486;2024-01-30T13:02:15;14.77;;;10.35;;
13244;SDS011;6689;53.400;12.486;2024-01-30T13:04:45;14.13;;;11.07;;
13244;SDS011;6689;53.400;12.486;2024-01-30T13:07:12;14.32;;;9.75;;
13244;SDS011;6689;53.400;12.486;2024-01-30T13:09:39;14.82;;;10.32;;
13244;SDS011;6689;53.400;12.486;2024-01-30T13:12:09;12.90;;;10.43;;
13244;SDS011;6689;53.400;12.486;2024-01-30T13:14:36;14.52;;;10.10;;
13244;SDS011;6689;53.400;12.486;2024-01-30T13:17:03;17.25;;;11.63;;
13244;SDS011;6689;53.400;12.486;2024-01-30T13:19:31;13.32;;;10.20;;
13244;SDS011;6689;53.400;12.486;2024-01-30T13:22:00;16.05;;;10.38;;
13244;SDS011;6689;53.400;12.486;2024-01-30T13:24:28;16.40;;;10.52;;
13244;SDS011;6689;53.400;12.486;2024-01-30T13:26:56;13.10;;;9.75;;
13244;SDS011;6689;53.400;12.486;2024-01-30T13:29:25;12.43;;;9.65;;
13244;SDS011;6689;53.400;12.486;2024-01-30T13:31:53;18.73;;;10.13;;
13244;SDS011;6689;53.400;12.486;2024-01-30T13:34:20;15.43;;;10.93;;
13244;SDS011;6689;53.400;12.486;2024-01-30T13:36:48;13.43;;;9.82;;
13244;SDS011;6689;53.400;12.486;2024-01-30T13:39:17;15.57;;;10.07;;
13244;SDS011;6689;53.400;12.486;2024-01-30T13:41:44;13.40;;;9.35;;
13244;SDS011;6689;53.400;12.486;2024-01-30T13:44:13;13.30;;;10.63;;
13244;SDS011;6689;53.400;12.486;2024-01-30T13:46:43;13.02;;;9.93;;
13244;SDS011;6689;53.400;12.486;2024-01-30T13:49:10;16.00;;;10.00;;
13244;SDS011;6689;53.400;12.486;2024-01-30T13:51:37;13.20;;;9.27;;
13244;SDS011;6689;53.400;12.486;2024-01-30T13:54:05;13.93;;;11.00;;
13244;SDS011;6689;53.400;12.486;2024-01-30T13:56:32;15.45;;;10.45;;
13244;SDS011;6689;53.400;12.486;2024-01-30T13:59:00;13.85;;;10.68;;
13244;SDS011;6689;53.400;12.486;2024-01-30T14:01:30;12.80;;;9.77;;
13244;SDS011;6689;53.400;12.486;2024-01-30T14:03:59;13.75;;;10.73;;
13244;SDS011;6689;53.400;12.486;2024-01-30T14:06:26;16.60;;;10.77;;
13244;SDS011;6689;53.400;12.486;2024-01-30T14:08:53;19.33;;;10.43;;
13244;SDS011;6689;53.400;12.486;2024-01-30T14:11:20;13.18;;;9.52;;
13244;SDS011;6689;53.400;12.486;2024-01-30T14:13:47;16.80;;;10.02;;
13244;SDS011;6689;53.400;12.486;2024-01-30T14:16:14;13.88;;;9.95;;
13244;SDS011;6689;53.400;12.486;2024-01-30T14:18:41;13.25;;;9.48;;
13244;SDS011;6689;53.400;12.486;2024-01-30T14:21:13;12.75;;;10.38;;
13244;SDS011;6689;53.400;12.486;2024-01-30T14:23:40;13.65;;;10.10;;
13244;SDS011;6689;53.400;12.486;2024-01-30T14:26:07;14.30;;;9.80;;
13244;SDS011;6689;53.400;12.486;2024-01-30T14:28:35;11.57;;;9.13;;
13244;SDS011;6689;53.400;12.486;2024-01-30T14:31:02;13.65;;;10.02;;
13244;SDS011;6689;53.400;12.486;2024-01-30T14:33:30;17.02;;;10.05;;
13244;SDS011;6689;53.400;12.486;2024-01-30T14:35:58;15.88;;;10.65;;
13244;SDS011;6689;53.400;12.486;2024-01-30T14:38:26;13.65;;;9.43;;